Time;durP1;ratioP1;P1;durP2;ratioP2;P2;SDS_P1;SDS_P2;PMS_P1;PMS_P2;Temp;Humidity;BMP_temperature;BMP_pressure;BME280_temperature;BME280_humidity;BME280_pressure;Samples;Min_cycle;Max_cycle;Signal;HPM_P1;HPM_P2
2022/11/25 00:01:24;;;;;;;17.38;4.70;;;7.20;99.90;;;;;;5094902;28;20083;-74
2022/11/25 00:03:54;;;;;;;17.13;4.68;;;7.30;99.90;;;;;;5088938;28;20054;-74
2022/11/25 00:06:25;;;;;;;18.95;4.70;;;7.20;99.90;;;;;;5097268;28;20047;-74
2022/11/25 00:08:54;;;;;;;16.27;4.30;;;7.20;99.90;;;;;;5087254;28;20106;-75
2022/11/25 00:11:19;;;;;;;16.23;4.35;;;8.00;99.90;;;;;;5108460;28;20052;-74
2022/11/25 00:13:47;;;;;;;14.38;3.88;;;7.30;99.90;;;;;;5077747;28;20044;-74
2022/11/25 00:16:15;;;;;;;15.80;4.38;;;7.30;99.90;;;;;;5078055;28;20043;-74
2022/11/25 00:18:46;;;;;;;19.88;4.40;;;7.20;99.90;;;;;;5097872;28;20058;-73
2022/11/25 00:21:16;;;;;;;19.40;4.38;;;7.30;99.90;;;;;;5076851;28;20121;-73
2022/11/25 00:23:42;;;;;;;16.33;4.18;;;7.20;99.90;;;;;;5097234;28;20046;-74
2022/11/25 00:26:10;;;;;;;17.75;4.38;;;7.20;99.90;;;;;;5083751;28;20044;-78
2022/11/25 00:28:37;;;;;;;18.02;4.43;;;7.20;99.90;;;;;;5080655;28;20125;-75
2022/11/25 00:31:07;;;;;;;17.30;4.50;;;7.20;99.90;;;;;;5089310;28;20070;-74
2022/11/25 00:33:33;;;;;;;21.33;4.95;;;7.20;99.90;;;;;;5077470;28;20090;-74
2022/11/25 00:36:01;;;;;;;17.15;4.55;;;7.20;99.90;;;;;;5099117;28;20040;-75
2022/11/25 00:38:27;;;;;;;14.73;4.50;;;7.40;99.90;;;;;;5094148;28;20434;-75
2022/11/25 00:46:21;;;;;;;20.13;4.47;;;7.20;99.90;;;;;;5094577;28;20141;-74
2022/11/25 00:48:47;;;;;;;21.50;4.10;;;7.20;99.90;;;;;;5076576;28;20395;-74
2022/11/25 00:51:12;;;;;;;19.30;4.50;;;7.30;99.90;;;;;;5080439;28;20046;-74
2022/11/25 00:53:38;;;;;;;17.55;4.93;;;8.10;99.90;;;;;;5114921;28;20055;-75
2022/11/25 00:56:13;;;;;;;19.38;4.72;;;7.30;99.90;;;;;;5099132;28;20039;-75
2022/11/25 00:58:43;;;;;;;18.17;4.28;;;7.30;99.90;;;;;;5076765;28;20086;-74
2022/11/25 01:01:09;;;;;;;13.18;3.67;;;7.30;99.90;;;;;;5090075;28;20044;-74
2022/11/25 01:03:38;;;;;;;17.63;4.70;;;7.40;99.90;;;;;;5066037;28;20392;-75
2022/11/25 01:06:06;;;;;;;16.05;4.38;;;7.40;99.90;;;;;;5077353;28;20131;-74
2022/11/25 01:08:32;;;;;;;15.82;4.40;;;7.40;99.90;;;;;;5097007;28;20539;-73
2022/11/25 01:11:00;;;;;;;20.95;4.65;;;7.40;99.90;;;;;;5081684;28;20048;-74
2022/11/25 01:13:26;;;;;;;17.95;4.47;;;7.30;99.90;;;;;;5049738;28;20040;-75
2022/11/25 01:15:52;;;;;;;15.85;4.32;;;7.30;99.90;;;;;;5084173;28;20072;-74
2022/11/25 01:18:17;;;;;;;14.40;4.28;;;7.30;99.90;;;;;;5075163;28;20044;-74
2022/11/25 01:20:43;;;;;;;17.10;4.13;;;7.30;99.90;;;;;;5053153;28;20044;-74
2022/11/25 01:23:09;;;;;;;15.27;4.20;;;7.20;99.90;;;;;;5057605;28;20533;-75
2022/11/25 01:25:40;;;;;;;15.73;4.30;;;7.20;99.90;;;;;;5082797;28;20055;-74
2022/11/25 01:28:06;;;;;;;19.63;4.90;;;7.10;99.90;;;;;;5078245;28;20124;-75
2022/11/25 01:30:32;;;;;;;18.00;5.00;;;7.10;99.90;;;;;;5095854;28;20554;-75
2022/11/25 01:32:58;;;;;;;14.82;4.18;;;7.20;99.90;;;;;;5080679;28;20072;-75
2022/11/25 01:35:23;;;;;;;17.58;4.38;;;7.10;99.90;;;;;;5075269;28;20086;-74
2022/11/25 01:37:49;;;;;;;15.65;4.40;;;7.10;99.90;;;;;;5095651;28;20045;-74
2022/11/25 01:40:15;;;;;;;18.77;4.65;;;7.20;99.90;;;;;;5075719;28;20066;-74
2022/11/25 01:42:45;;;;;;;15.52;4.22;;;7.20;99.90;;;;;;5075729;28;20122;-75
2022/11/25 01:45:31;;;;;;;14.70;4.43;;;7.10;99.90;;;;;;5049406;28;20039;-74
2022/11/25 01:48:04;;;;;;;20.33;4.55;;;7.20;99.90;;;;;;5087749;28;20051;-73
2022/11/25 01:50:32;;;;;;;14.40;4.07;;;7.20;99.90;;;;;;5089858;28;20044;-74
2022/11/25 01:52:59;;;;;;;17.23;4.30;;;7.20;99.90;;;;;;5069796;28;20040;-75
2022/11/25 01:55:29;;;;;;;19.10;4.88;;;7.20;99.90;;;;;;5080303;28;20553;-74
2022/11/25 01:58:03;;;;;;;18.15;4.80;;;7.20;99.90;;;;;;5095476;28;20084;-75
2022/11/25 02:00:29;;;;;;;16.45;4.15;;;7.30;99.90;;;;;;5092853;28;22115;-74
2022/11/25 02:02:56;;;;;;;17.77;4.40;;;7.20;99.90;;;;;;5064250;28;20047;-74
2022/11/25 02:05:47;;;;;;;16.95;4.25;;;7.30;99.90;;;;;;5088169;28;20448;-74
2022/11/25 02:08:14;;;;;;;14.93;4.47;;;7.30;99.90;;;;;;5067694;28;20059;-74
2022/11/25 02:10:41;;;;;;;18.08;3.90;;;7.30;99.90;;;;;;5077040;28;20102;-73
2022/11/25 02:13:08;;;;;;;16.17;4.30;;;7.40;99.90;;;;;;5067097;28;20050;-74
2022/11/25 02:15:34;;;;;;;21.35;5.00;;;7.40;99.90;;;;;;5093451;28;20043;-73
2022/11/25 02:18:00;;;;;;;15.57;4.43;;;7.40;99.90;;;;;;5080493;28;20050;-73
2022/11/25 02:20:26;;;;;;;16.95;4.65;;;7.40;99.90;;;;;;5094691;28;20047;-72
2022/11/25 02:23:06;;;;;;;16.75;4.90;;;7.30;99.90;;;;;;5080647;28;21076;-72
2022/11/25 02:25:34;;;;;;;20.45;4.55;;;7.40;99.90;;;;;;5084618;28;20121;-72
2022/11/25 02:28:05;;;;;;;17.23;4.85;;;7.30;99.90;;;;;;5073705;28;20075;-73
2022/11/25 02:30:32;;;;;;;20.27;4.72;;;7.40;99.90;;;;;;5074828;28;20056;-72
2022/11/25 02:32:59;;;;;;;18.20;5.05;;;7.40;99.90;;;;;;5063191;28;20044;-72
2022/11/25 02:35:34;;;;;;;21.88;5.45;;;7.40;99.90;;;;;;5094595;28;20035;-73
2022/11/25 02:38:35;;;;;;;17.75;4.88;;;7.40;99.90;;;;;;5095266;28;20430;-74
2022/11/25 02:41:08;;;;;;;21.25;5.15;;;7.40;99.90;;;;;;5096011;27;20487;-73
2022/11/25 02:43:34;;;;;;;23.65;5.25;;;7.40;99.90;;;;;;5062053;28;20040;-73
2022/11/25 02:46:05;;;;;;;17.17;5.03;;;7.40;99.90;;;;;;5082965;28;20047;-75
2022/11/25 02:48:33;;;;;;;17.38;5.10;;;7.40;99.90;;;;;;5085802;28;20052;-73
2022/11/25 02:50:59;;;;;;;21.13;5.15;;;7.50;99.90;;;;;;5078211;28;20044;-74
2022/11/25 02:53:25;;;;;;;22.10;5.30;;;7.40;99.90;;;;;;5070660;28;20050;-74
2022/11/25 02:55:51;;;;;;;17.55;5.07;;;7.50;99.90;;;;;;5075505;28;20050;-74
2022/11/25 02:58:17;;;;;;;20.20;5.45;;;7.40;99.90;;;;;;5084836;28;20411;-74
2022/11/25 03:00:44;;;;;;;21.25;5.10;;;7.40;99.90;;;;;;5081249;28;20054;-75
2022/11/25 03:03:10;;;;;;;18.50;4.93;;;7.50;99.90;;;;;;5090932;28;20044;-74
2022/11/25 03:05:36;;;;;;;22.38;5.80;;;7.50;99.90;;;;;;5046919;28;20506;-75
2022/11/25 03:08:02;;;;;;;21.45;5.30;;;7.50;99.90;;;;;;5045912;28;20106;-81
2022/11/25 03:10:28;;;;;;;21.98;5.70;;;7.40;99.90;;;;;;5091826;28;20126;-75
2022/11/25 03:12:54;;;;;;;20.80;5.15;;;7.40;99.90;;;;;;5084760;28;20047;-75
2022/11/25 03:15:20;;;;;;;20.20;5.45;;;7.50;99.90;;;;;;5087278;28;20101;-75
2022/11/25 03:17:46;;;;;;;24.65;5.70;;;7.40;99.90;;;;;;5080468;28;20490;-76
2022/11/25 03:20:13;;;;;;;23.60;5.75;;;7.50;99.90;;;;;;5081669;28;20055;-74
2022/11/25 03:22:42;;;;;;;23.98;5.78;;;7.50;99.90;;;;;;5092749;28;20087;-75
2022/11/25 03:25:10;;;;;;;23.98;6.15;;;7.40;99.90;;;;;;5088899;28;20047;-76
2022/11/25 03:27:37;;;;;;;30.92;7.18;;;7.50;99.90;;;;;;5077796;28;20058;-77
2022/11/25 03:30:04;;;;;;;23.65;6.18;;;7.30;99.90;;;;;;5076792;28;20044;-77
2022/11/25 03:32:30;;;;;;;23.45;6.53;;;7.40;99.90;;;;;;5068929;28;20139;-76
2022/11/25 03:34:56;;;;;;;21.77;6.45;;;7.40;99.90;;;;;;5105502;27;20418;-77
2022/11/25 03:37:21;;;;;;;21.33;5.75;;;7.40;99.90;;;;;;5086790;28;20390;-77
2022/11/25 03:39:47;;;;;;;21.52;6.28;;;7.40;99.90;;;;;;5077923;28;20051;-78
2022/11/25 03:42:13;;;;;;;18.67;6.15;;;7.40;99.90;;;;;;5092197;28;20514;-77
2022/11/25 03:44:39;;;;;;;20.75;6.68;;;7.40;99.90;;;;;;5089778;28;20039;-76
2022/11/25 03:47:04;;;;;;;21.35;5.18;;;7.50;99.90;;;;;;5061319;28;20050;-77
2022/11/25 03:49:30;;;;;;;20.83;6.10;;;7.50;99.90;;;;;;5087663;28;20047;-77
2022/11/25 03:51:56;;;;;;;24.23;6.63;;;7.60;99.90;;;;;;5058928;28;20044;-76
2022/11/25 03:54:21;;;;;;;24.65;6.80;;;7.50;99.90;;;;;;5044923;28;20503;-76
2022/11/25 03:56:47;;;;;;;17.90;6.05;;;7.50;99.90;;;;;;5081138;28;20072;-76
2022/11/25 03:59:13;;;;;;;21.45;6.20;;;8.00;99.90;;;;;;5097487;28;20040;-76
2022/11/25 04:01:39;;;;;;;20.10;6.35;;;7.80;99.90;;;;;;5083145;28;20126;-77
2022/11/25 04:04:05;;;;;;;21.23;6.78;;;7.50;99.90;;;;;;5097882;28;20060;-76
2022/11/25 04:06:31;;;;;;;23.15;6.70;;;7.40;99.90;;;;;;5063258;28;20044;-77
2022/11/25 04:08:57;;;;;;;21.02;6.78;;;7.50;99.90;;;;;;5077695;28;20048;-76
2022/11/25 04:12:45;;;;;;;24.48;6.72;;;7.60;99.90;;;;;;5047223;28;20062;-77
2022/11/25 04:14:11;;;;;;;26.52;7.35;;;7.40;99.90;;;;;;5088086;28;20087;-76
2022/11/25 04:16:37;;;;;;;23.30;7.03;;;7.50;99.90;;;;;;5059791;28;20079;-76
2022/11/25 04:19:03;;;;;;;23.08;7.38;;;7.50;99.90;;;;;;5077616;28;20071;-76
2022/11/25 04:21:29;;;;;;;24.33;7.70;;;7.40;99.90;;;;;;5090160;28;20054;-76
2022/11/25 04:23:55;;;;;;;19.80;6.18;;;7.40;99.90;;;;;;5091668;28;20036;-76
2022/11/25 04:26:21;;;;;;;24.15;6.30;;;7.50;99.90;;;;;;5087949;28;20127;-76
2022/11/25 04:28:46;;;;;;;19.42;6.65;;;7.60;99.90;;;;;;5077905;28;20044;-76
2022/11/25 04:31:12;;;;;;;21.30;6.63;;;7.50;99.90;;;;;;5097140;28;20056;-75
2022/11/25 04:33:38;;;;;;;17.70;6.10;;;7.50;99.90;;;;;;5080764;28;20168;-75
2022/11/25 04:36:04;;;;;;;24.20;7.10;;;7.50;99.90;;;;;;5075872;28;20036;-75
2022/11/25 04:38:29;;;;;;;22.85;7.13;;;7.50;99.90;;;;;;5091611;28;20126;-75
2022/11/25 04:40:55;;;;;;;21.05;6.63;;;7.60;99.90;;;;;;5093148;28;20130;-76
2022/11/25 04:43:21;;;;;;;24.65;7.80;;;7.40;99.90;;;;;;5103938;28;20100;-75
2022/11/25 04:45:47;;;;;;;24.50;7.07;;;7.50;99.90;;;;;;5063592;28;20044;-76
2022/11/25 04:48:13;;;;;;;17.90;6.40;;;7.50;99.90;;;;;;5096870;28;20102;-76
2022/11/25 04:50:39;;;;;;;22.77;7.75;;;7.50;99.90;;;;;;5114481;28;20048;-75
2022/11/25 04:53:04;;;;;;;27.40;8.05;;;7.50;99.90;;;;;;5099280;28;20659;-75
2022/11/25 04:55:30;;;;;;;23.70;7.95;;;7.50;99.90;;;;;;5073858;28;20054;-75
2022/11/25 04:57:56;;;;;;;26.20;8.27;;;7.50;99.90;;;;;;5094893;28;20483;-75
2022/11/25 05:00:22;;;;;;;22.75;7.63;;;7.50;99.90;;;;;;5085017;28;20140;-74
2022/11/25 05:02:48;;;;;;;23.52;8.50;;;7.50;99.90;;;;;;5076331;28;20047;-75
2022/11/25 05:05:14;;;;;;;26.27;8.57;;;7.50;99.90;;;;;;5059367;28;20043;-75
2022/11/25 05:07:39;;;;;;;22.02;8.18;;;7.50;99.90;;;;;;5060351;28;20079;-75
2022/11/25 05:10:06;;;;;;;24.95;8.45;;;7.60;99.90;;;;;;5082494;28;20443;-74
2022/11/25 05:12:32;;;;;;;22.85;7.95;;;7.50;99.90;;;;;;5097081;28;20391;-76
2022/11/25 05:14:58;;;;;;;29.50;8.18;;;7.50;99.90;;;;;;5058516;28;20052;-75
2022/11/25 05:17:28;;;;;;;30.95;9.05;;;7.60;99.90;;;;;;5100258;28;20082;-76
2022/11/25 05:19:54;;;;;;;23.55;8.98;;;7.60;99.90;;;;;;5072931;28;20051;-74
2022/11/25 05:22:28;;;;;;;25.08;8.73;;;7.60;99.90;;;;;;5085381;28;20039;-75
2022/11/25 05:24:55;;;;;;;24.88;8.45;;;7.60;99.90;;;;;;5077193;28;20036;-75
2022/11/25 05:27:21;;;;;;;29.73;8.85;;;7.60;99.90;;;;;;5058971;28;20048;-75
2022/11/25 05:29:48;;;;;;;30.50;9.70;;;7.60;99.90;;;;;;5071908;28;20373;-75
2022/11/25 05:32:14;;;;;;;26.65;9.43;;;7.60;99.90;;;;;;5072468;28;20407;-74
2022/11/25 05:34:40;;;;;;;26.63;9.90;;;7.60;99.90;;;;;;5056017;28;20494;-74
2022/11/25 05:37:07;;;;;;;34.17;10.48;;;7.60;99.90;;;;;;5068844;28;20133;-75
2022/11/25 05:39:33;;;;;;;25.90;9.40;;;7.60;99.90;;;;;;5065350;28;20485;-75
2022/11/25 05:41:59;;;;;;;28.25;9.90;;;7.60;99.90;;;;;;5057596;28;20080;-75
2022/11/25 05:44:25;;;;;;;32.92;10.20;;;7.60;99.90;;;;;;5055374;28;20546;-74
2022/11/25 05:46:50;;;;;;;29.92;9.80;;;7.70;99.90;;;;;;5060489;28;20145;-74
2022/11/25 05:49:17;;;;;;;33.88;10.45;;;7.70;99.90;;;;;;5075835;28;20507;-75
2022/11/25 05:51:43;;;;;;;31.77;10.40;;;8.30;99.90;;;;;;5063276;28;20058;-75
2022/11/25 05:54:09;;;;;;;30.38;10.27;;;7.60;99.90;;;;;;5087043;28;20044;-75
2022/11/25 05:56:35;;;;;;;34.30;11.15;;;7.70;99.90;;;;;;5080993;28;20131;-74
2022/11/25 05:59:01;;;;;;;29.23;10.60;;;7.70;99.90;;;;;;5081882;28;20391;-74
2022/11/25 06:01:27;;;;;;;28.88;10.95;;;7.70;99.90;;;;;;5038678;28;20040;-74
2022/11/25 06:03:53;;;;;;;33.03;11.75;;;7.70;99.90;;;;;;5066541;28;20055;-74
2022/11/25 06:06:19;;;;;;;32.47;11.15;;;7.70;99.90;;;;;;5074437;28;20048;-74
2022/11/25 06:08:45;;;;;;;31.25;11.68;;;7.70;99.90;;;;;;5044394;28;20044;-75
2022/11/25 06:11:14;;;;;;;34.25;11.73;;;7.70;99.90;;;;;;5023409;28;20082;-75
2022/11/25 06:13:41;;;;;;;33.55;12.55;;;7.70;99.90;;;;;;5088222;28;20087;-74
2022/11/25 06:16:12;;;;;;;33.25;13.13;;;7.80;99.90;;;;;;5075116;28;20051;-75
2022/11/25 06:18:38;;;;;;;31.08;13.55;;;7.80;99.90;;;;;;5061801;28;20374;-74
2022/11/25 06:21:05;;;;;;;35.35;12.93;;;7.90;99.90;;;;;;5074611;28;20123;-74
2022/11/25 06:23:31;;;;;;;33.97;13.90;;;7.90;99.90;;;;;;5077965;28;20040;-74
2022/11/25 06:26:11;;;;;;;36.83;14.52;;;7.90;99.90;;;;;;5064690;28;20071;-74
2022/11/25 06:28:36;;;;;;;37.92;15.00;;;7.90;99.90;;;;;;5038130;28;20235;-75
2022/11/25 06:31:08;;;;;;;35.22;15.55;;;7.90;99.90;;;;;;5063923;28;20055;-74
2022/11/25 06:33:35;;;;;;;36.28;16.25;;;7.90;99.90;;;;;;5091405;28;20476;-75
2022/11/25 06:36:06;;;;;;;35.33;15.57;;;7.90;99.90;;;;;;5074144;28;20055;-74
2022/11/25 06:38:32;;;;;;;33.33;16.35;;;7.90;99.90;;;;;;5098265;28;20110;-74
2022/11/25 06:41:02;;;;;;;33.15;15.95;;;7.90;99.90;;;;;;5060910;28;20387;-74
2022/11/25 06:43:29;;;;;;;31.02;15.30;;;7.90;99.90;;;;;;5084564;28;20047;-74
2022/11/25 06:45:59;;;;;;;34.75;14.95;;;7.90;99.90;;;;;;5093132;28;20066;-75
2022/11/25 06:48:26;;;;;;;38.65;16.25;;;7.90;99.90;;;;;;5084783;28;20502;-75
2022/11/25 06:51:00;;;;;;;35.05;15.15;;;8.00;99.90;;;;;;5085523;28;20181;-74
2022/11/25 06:53:26;;;;;;;33.78;15.38;;;7.90;99.90;;;;;;5090618;28;20063;-74
2022/11/25 06:56:25;;;;;;;34.22;14.85;;;8.00;99.90;;;;;;5076865;28;20044;-74
2022/11/25 06:58:52;;;;;;;34.67;15.65;;;8.00;99.90;;;;;;5016638;28;20058;-75
2022/11/25 07:01:21;;;;;;;31.83;14.05;;;8.00;99.90;;;;;;5089052;28;20055;-74
2022/11/25 07:03:49;;;;;;;35.08;14.45;;;8.00;99.90;;;;;;5081031;28;20127;-74
2022/11/25 07:06:16;;;;;;;34.42;14.30;;;8.00;99.90;;;;;;5087230;28;20480;-74
2022/11/25 07:08:43;;;;;;;30.00;12.43;;;8.00;99.90;;;;;;5080608;28;20050;-74
2022/11/25 07:11:15;;;;;;;30.83;13.27;;;8.00;99.90;;;;;;5066901;28;20141;-74
2022/11/25 07:13:40;;;;;;;32.95;12.70;;;8.10;99.90;;;;;;5063384;28;20048;-74
2022/11/25 07:16:07;;;;;;;31.55;13.65;;;8.10;99.90;;;;;;5082898;28;20044;-74
2022/11/25 07:18:35;;;;;;;27.92;11.98;;;8.00;99.90;;;;;;5051489;28;20105;-74
2022/11/25 07:21:10;;;;;;;28.50;11.80;;;8.10;99.90;;;;;;5084074;28;20047;-74
2022/11/25 07:23:37;;;;;;;31.35;11.70;;;8.10;99.90;;;;;;5087222;28;20494;-74
2022/11/25 07:26:08;;;;;;;29.40;11.05;;;8.00;99.90;;;;;;5086732;28;20068;-74
2022/11/25 07:28:35;;;;;;;27.92;10.32;;;8.10;99.90;;;;;;5063338;28;20488;-73
2022/11/25 07:31:31;;;;;;;24.02;10.30;;;8.10;99.90;;;;;;5075641;28;20051;-75
2022/11/25 07:34:00;;;;;;;27.33;10.27;;;8.10;99.90;;;;;;5076150;28;20071;-74
2022/11/25 07:36:26;;;;;;;24.48;9.05;;;8.00;99.90;;;;;;5065451;28;20048;-74
2022/11/25 07:38:57;;;;;;;22.33;9.57;;;8.10;99.90;;;;;;5058820;28;20052;-74
2022/11/25 07:41:24;;;;;;;25.73;9.68;;;8.10;99.90;;;;;;5074005;28;20039;-73
2022/11/25 07:43:57;;;;;;;23.33;9.05;;;8.10;99.90;;;;;;5102905;28;20050;-74
2022/11/25 07:46:30;;;;;;;21.75;8.07;;;8.10;99.90;;;;;;5083968;28;20126;-74
2022/11/25 07:48:58;;;;;;;22.27;8.88;;;8.10;99.90;;;;;;5070591;28;20070;-73
2022/11/25 07:51:27;;;;;;;21.52;8.63;;;8.10;99.90;;;;;;5081292;28;20123;-73
2022/11/25 07:53:55;;;;;;;30.20;9.30;;;8.10;99.90;;;;;;5081430;28;20048;-73
2022/11/25 07:56:21;;;;;;;25.42;9.07;;;8.10;99.90;;;;;;5097357;28;20285;-73
2022/11/25 07:58:47;;;;;;;19.90;8.57;;;8.20;99.90;;;;;;5077345;28;20051;-73
2022/11/25 08:01:15;;;;;;;23.67;8.45;;;8.00;99.90;;;;;;5063078;28;20059;-73
2022/11/25 08:03:42;;;;;;;26.33;8.55;;;8.00;99.90;;;;;;5088669;28;20498;-73
2022/11/25 08:06:18;;;;;;;22.38;8.43;;;7.90;99.90;;;;;;5079470;28;20039;-73
2022/11/25 08:08:44;;;;;;;23.13;8.88;;;7.90;99.90;;;;;;5077990;28;20055;-73
2022/11/25 08:11:16;;;;;;;23.08;8.00;;;7.90;99.90;;;;;;5097020;28;20043;-73
2022/11/25 08:13:42;;;;;;;20.00;8.05;;;7.90;99.90;;;;;;5080647;28;20074;-73
2022/11/25 08:16:09;;;;;;;21.65;8.00;;;7.80;99.90;;;;;;5090288;28;20388;-73
2022/11/25 08:18:35;;;;;;;20.88;8.65;;;7.80;99.90;;;;;;5097887;28;20055;-74
2022/11/25 08:21:03;;;;;;;21.90;8.38;;;7.80;99.90;;;;;;5066131;28;20040;-73
2022/11/25 08:23:30;;;;;;;21.58;8.57;;;7.80;99.90;;;;;;5080912;28;20122;-73
2022/11/25 08:25:56;;;;;;;20.67;8.43;;;7.90;99.90;;;;;;5087275;28;20472;-73
2022/11/25 08:28:22;;;;;;;20.73;8.13;;;7.80;99.90;;;;;;5082484;28;20050;-73
2022/11/25 08:30:49;;;;;;;19.58;8.05;;;7.90;99.90;;;;;;5080356;28;20083;-73
2022/11/25 08:33:14;;;;;;;25.88;9.38;;;7.80;99.90;;;;;;5080461;28;20070;-73
2022/11/25 08:35:40;;;;;;;21.38;8.25;;;7.80;99.90;;;;;;5085270;28;20126;-73
2022/11/25 08:38:08;;;;;;;24.25;9.20;;;7.80;99.90;;;;;;5084840;28;20520;-73
2022/11/25 08:40:35;;;;;;;24.33;8.98;;;7.90;99.90;;;;;;5084827;28;20058;-73
2022/11/25 08:43:02;;;;;;;22.80;8.57;;;7.90;99.90;;;;;;5082035;28;20440;-73
2022/11/25 08:45:29;;;;;;;26.25;10.07;;;8.00;99.90;;;;;;5064180;28;20036;-73
2022/11/25 08:47:55;;;;;;;21.65;9.13;;;8.10;99.90;;;;;;5053672;28;20058;-73
2022/11/25 08:50:23;;;;;;;20.25;8.35;;;8.10;99.90;;;;;;5096771;28;20043;-73
2022/11/25 08:52:49;;;;;;;23.60;8.50;;;8.10;99.90;;;;;;5095872;28;20044;-74
2022/11/25 08:55:15;;;;;;;23.88;9.30;;;8.30;99.90;;;;;;5069807;28;20046;-73
2022/11/25 08:57:40;;;;;;;19.55;8.85;;;8.30;99.90;;;;;;5090472;28;20546;-73
2022/11/25 09:00:07;;;;;;;20.92;8.82;;;8.40;99.90;;;;;;5063474;28;20484;-73
2022/11/25 09:02:33;;;;;;;18.15;8.32;;;8.50;99.90;;;;;;5094202;28;20074;-74
2022/11/25 09:04:59;;;;;;;20.30;8.23;;;8.50;99.90;;;;;;5068648;28;20075;-74
2022/11/25 09:07:24;;;;;;;18.77;8.27;;;8.60;99.90;;;;;;5084844;28;20043;-74
2022/11/25 09:09:50;;;;;;;19.27;8.55;;;8.70;99.90;;;;;;5056426;28;20157;-74
2022/11/25 09:12:16;;;;;;;16.08;8.20;;;8.70;99.90;;;;;;5095214;27;20050;-74
2022/11/25 09:14:41;;;;;;;16.90;8.02;;;8.80;99.90;;;;;;5093601;28;20071;-74
2022/11/25 09:17:11;;;;;;;20.92;9.45;;;8.80;99.90;;;;;;5073176;28;20268;-74
2022/11/25 09:19:37;;;;;;;18.13;9.05;;;8.90;99.90;;;;;;5081023;28;20092;-74
2022/11/25 09:22:03;;;;;;;20.15;9.10;;;9.00;99.90;;;;;;5080427;28;20105;-74
2022/11/25 09:24:29;;;;;;;21.05;8.88;;;9.10;99.90;;;;;;5092216;28;20479;-73
2022/11/25 09:26:56;;;;;;;19.83;8.45;;;9.10;99.90;;;;;;5080284;28;20052;-74
2022/11/25 09:29:22;;;;;;;19.20;8.70;;;9.10;99.90;;;;;;5104514;28;20056;-74
2022/11/25 09:31:49;;;;;;;17.73;9.25;;;9.10;99.90;;;;;;5081263;28;20356;-73
2022/11/25 09:34:14;;;;;;;17.45;8.90;;;9.30;99.90;;;;;;5097401;28;20101;-73
2022/11/25 09:36:40;;;;;;;18.23;8.75;;;9.30;99.90;;;;;;5065383;28;20040;-74
2022/11/25 09:39:06;;;;;;;17.33;8.63;;;9.30;99.90;;;;;;5096929;28;20067;-74
2022/11/25 09:48:26;;;;;;;18.13;8.48;;;9.30;99.90;;;;;;5093332;28;20097;-74
2022/11/25 09:51:21;;;;;;;15.50;7.80;;;9.40;99.90;;;;;;5093190;28;20433;-74
2022/11/25 09:53:56;;;;;;;15.98;8.95;;;9.50;99.90;;;;;;5073451;28;20059;-74
2022/11/25 09:56:34;;;;;;;16.20;8.30;;;9.60;99.90;;;;;;5073741;28;20032;-74
2022/11/25 09:59:24;;;;;;;15.95;7.68;;;9.70;99.90;;;;;;5082262;28;20043;-74
2022/11/25 10:02:01;;;;;;;14.13;7.65;;;9.70;99.90;;;;;;5095717;28;20047;-74
2022/11/25 10:04:49;;;;;;;13.75;7.40;;;9.70;99.90;;;;;;5086634;28;20039;-74
2022/11/25 10:07:27;;;;;;;13.48;7.00;;;9.70;99.90;;;;;;5076326;28;20055;-73
2022/11/25 10:09:55;;;;;;;16.98;6.93;;;9.80;99.90;;;;;;5057900;28;20059;-73
2022/11/25 10:12:31;;;;;;;14.77;7.18;;;9.90;99.90;;;;;;5084412;28;20040;-73
2022/11/25 10:15:04;;;;;;;15.75;7.13;;;9.90;99.90;;;;;;5061723;28;20118;-74
2022/11/25 10:17:34;;;;;;;14.02;6.63;;;10.00;99.90;;;;;;5085140;28;20047;-73
2022/11/25 10:20:19;;;;;;;12.27;6.28;;;10.10;99.90;;;;;;5098206;28;20047;-73
2022/11/25 10:22:47;;;;;;;14.27;6.32;;;10.10;99.90;;;;;;5095080;28;20051;-73
2022/11/25 10:25:26;;;;;;;13.30;6.03;;;10.20;99.90;;;;;;5091829;28;20404;-73
2022/11/25 10:28:00;;;;;;;13.52;6.40;;;10.20;99.90;;;;;;5085950;28;20062;-73
2022/11/25 10:30:48;;;;;;;14.73;5.68;;;10.20;99.90;;;;;;5073617;28;20055;-74
2022/11/25 10:33:25;;;;;;;12.02;5.65;;;10.20;99.90;;;;;;5074873;28;20408;-73
2022/11/25 10:35:59;;;;;;;16.15;5.75;;;10.30;99.90;;;;;;5074223;28;20039;-73
2022/11/25 10:38:36;;;;;;;13.48;5.72;;;10.20;99.90;;;;;;5088431;28;20055;-73
2022/11/25 10:41:03;;;;;;;13.77;5.28;;;10.30;99.90;;;;;;5091583;28;20052;-73
2022/11/25 10:43:30;;;;;;;14.77;5.40;;;10.30;99.90;;;;;;5088384;28;20421;-73
2022/11/25 10:46:22;;;;;;;13.15;4.80;;;10.30;99.90;;;;;;5066662;28;20059;-74
2022/11/25 10:49:14;;;;;;;12.73;5.00;;;10.30;99.90;;;;;;5081843;28;20074;-73
2022/11/25 10:51:46;;;;;;;14.02;4.95;;;10.30;99.90;;;;;;5078032;28;20061;-74
2022/11/25 10:54:15;;;;;;;12.30;4.68;;;10.30;99.90;;;;;;5084212;28;20122;-73
2022/11/25 10:56:51;;;;;;;13.93;5.30;;;10.30;99.90;;;;;;5078268;28;20475;-73
2022/11/25 10:59:37;;;;;;;12.88;4.78;;;10.30;99.90;;;;;;5083128;28;20047;-73
2022/11/25 11:02:28;;;;;;;11.25;4.88;;;10.30;99.90;;;;;;5064494;28;20055;-73
2022/11/25 11:05:09;;;;;;;12.18;4.80;;;10.30;99.90;;;;;;5077595;28;20063;-73
2022/11/25 11:07:41;;;;;;;12.35;4.55;;;10.30;99.90;;;;;;5074944;28;20491;-73
2022/11/25 11:10:19;;;;;;;15.57;5.15;;;10.40;99.90;;;;;;5057560;28;20067;-73
2022/11/25 11:12:56;;;;;;;12.18;5.13;;;10.40;99.90;;;;;;5076104;28;20070;-75
2022/11/25 11:15:42;;;;;;;12.90;4.70;;;10.40;99.90;;;;;;5094127;28;20122;-73
2022/11/25 11:18:28;;;;;;;11.43;4.97;;;10.40;99.90;;;;;;5090909;28;20089;-73
2022/11/25 11:20:59;;;;;;;13.35;4.88;;;10.40;99.90;;;;;;5064749;28;20047;-74
2022/11/25 11:23:26;;;;;;;16.08;5.25;;;10.40;99.90;;;;;;5077967;28;20488;-74
2022/11/25 11:26:03;;;;;;;13.00;4.38;;;10.40;99.90;;;;;;5075676;28;20119;-74
2022/11/25 11:28:36;;;;;;;15.00;5.10;;;10.40;99.90;;;;;;5073278;28;20088;-74
2022/11/25 11:31:19;;;;;;;14.80;4.28;;;10.40;99.90;;;;;;5085283;28;20058;-73
2022/11/25 11:33:47;;;;;;;11.65;4.68;;;10.40;99.90;;;;;;5082782;28;20048;-74
2022/11/25 11:36:37;;;;;;;12.52;4.38;;;10.40;99.90;;;;;;5068806;28;20051;-74
2022/11/25 11:39:34;;;;;;;12.55;4.20;;;10.40;99.90;;;;;;5081061;28;20052;-74
2022/11/25 11:42:35;;;;;;;13.18;4.00;;;10.40;99.90;;;;;;5078964;28;20044;-74
2022/11/25 11:45:11;;;;;;;10.63;3.97;;;10.40;99.90;;;;;;5066131;28;20083;-74
2022/11/25 11:47:48;;;;;;;12.13;3.97;;;10.40;99.90;;;;;;5085915;28;20117;-74
2022/11/25 11:50:20;;;;;;;14.23;4.55;;;10.40;99.90;;;;;;5076955;28;20051;-74
2022/11/25 11:52:54;;;;;;;11.40;4.00;;;10.50;99.90;;;;;;5084797;28;20492;-75
2022/11/25 11:55:46;;;;;;;11.55;4.00;;;10.50;99.90;;;;;;5080487;28;20039;-74
2022/11/25 11:58:36;;;;;;;10.93;4.20;;;10.50;99.90;;;;;;5081430;28;20050;-74
2022/11/25 12:01:21;;;;;;;15.73;4.40;;;10.50;99.90;;;;;;5079007;28;20722;-73
2022/11/25 12:04:13;;;;;;;12.43;3.75;;;10.50;99.90;;;;;;5097692;28;20051;-73
2022/11/25 12:06:44;;;;;;;13.05;4.10;;;10.40;99.90;;;;;;5056888;28;20052;-74
2022/11/25 12:09:16;;;;;;;13.40;4.10;;;10.40;99.90;;;;;;5078014;28;20044;-74
2022/11/25 12:11:48;;;;;;;13.68;4.28;;;10.50;99.90;;;;;;5077327;28;20054;-74
2022/11/25 12:14:21;;;;;;;13.15;3.90;;;10.40;99.90;;;;;;5077604;28;20044;-74
2022/11/25 12:16:56;;;;;;;12.68;3.70;;;10.40;99.90;;;;;;5096228;28;20472;-75
2022/11/25 12:19:59;;;;;;;13.57;3.90;;;10.40;99.90;;;;;;5068716;28;20040;-73
2022/11/25 12:22:35;;;;;;;13.45;3.60;;;10.50;99.90;;;;;;5060563;28;20072;-74
2022/11/25 12:25:18;;;;;;;13.45;3.78;;;10.60;99.90;;;;;;5076429;28;20044;-73
2022/11/25 12:27:58;;;;;;;13.40;3.63;;;10.60;99.90;;;;;;5088656;28;20047;-73
2022/11/25 12:30:42;;;;;;;13.48;3.50;;;10.60;99.90;;;;;;5082257;28;20130;-73
2022/11/25 12:33:39;;;;;;;14.88;3.78;;;10.60;99.90;;;;;;5083850;28;20109;-74
2022/11/25 12:36:10;;;;;;;11.57;3.25;;;10.70;99.90;;;;;;5059222;28;20131;-73
2022/11/25 12:38:47;;;;;;;8.10;2.37;;;10.70;99.90;;;;;;5088085;28;20105;-74
2022/11/25 12:41:18;;;;;;;12.57;3.33;;;10.70;99.90;;;;;;5076783;28;20286;-74
2022/11/25 12:43:57;;;;;;;13.80;3.50;;;10.80;99.90;;;;;;5076489;28;20048;-73
2022/11/25 12:46:44;;;;;;;11.32;3.38;;;10.80;99.90;;;;;;5060876;28;20050;-74
2022/11/25 12:49:18;;;;;;;13.32;3.25;;;10.80;99.90;;;;;;5080662;28;20059;-74
2022/11/25 12:52:17;;;;;;;11.90;3.58;;;10.80;99.90;;;;;;5095821;28;20040;-74
2022/11/25 12:55:17;;;;;;;13.55;3.05;;;10.80;99.90;;;;;;5097658;28;20051;-73
2022/11/25 12:57:58;;;;;;;12.85;3.20;;;10.80;99.90;;;;;;5086607;28;20467;-73
2022/11/25 13:00:48;;;;;;;12.75;3.28;;;10.80;99.90;;;;;;5076806;28;20369;-73
2022/11/25 13:03:32;;;;;;;13.75;3.42;;;10.70;99.90;;;;;;5079195;28;20039;-73
2022/11/25 13:06:18;;;;;;;14.10;3.25;;;10.70;99.90;;;;;;5075490;28;20052;-73
2022/11/25 13:08:53;;;;;;;15.60;3.63;;;10.70;99.90;;;;;;5076122;28;20102;-73
2022/11/25 13:11:44;;;;;;;13.88;3.30;;;10.60;99.90;;;;;;5090431;28;20051;-72
2022/11/25 13:14:20;;;;;;;13.63;3.30;;;10.60;99.90;;;;;;5088289;28;20043;-72